Terminal Aerodrome Forecast
Issued by NWS Duluth, MN

Home | Current Version | Previous Version | Text Only | Print | Product List | Glossary On
Versions: 1 2 3 4 5 6 7 8 9 10 11 12 13 14 15 16 17 18 19 20 21 22 23 24
000
FTUS43 KDLH 281700
TAFINL
TAF
KINL 281724Z 2818/2918 19008G15KT P6SM SCT250
     FM290300 18012G22KT P6SM SCT030 BKN100 WS020/20040KT
     FM290800 21012G22KT P6SM -RA BKN020 OVC040
     FM291200 27012G22KT 4SM -SN OVC020
     FM291600 31018G28KT P6SM -RA SCT020 OVC040=

USA.gov is the U.S. government's official web portal to all federal, state and local government web resources and services.